createdAt,value
2018-06-23T00:00:10.214Z,75.85
2018-06-23T00:01:15.712Z,75.85
2018-06-23T00:02:21.231Z,75.85
2018-06-23T00:03:27.753Z,75.95
2018-06-23T00:04:33.292Z,75.85
2018-06-23T00:05:37.770Z,75.66
2018-06-23T00:06:43.284Z,76.04
2018-06-23T00:07:48.785Z,75.85
2018-06-23T00:08:55.336Z,76.23
2018-06-23T00:10:00.833Z,75.56
2018-06-23T00:11:05.365Z,76.23
2018-06-23T00:12:10.863Z,76.04
2018-06-23T00:13:16.422Z,76.14
2018-06-23T00:14:22.894Z,76.23
2018-06-23T00:15:28.394Z,76.14
2018-06-23T00:16:32.913Z,76.33
2018-06-23T00:17:38.420Z,75.71
2018-06-23T00:18:43.928Z,76.29
2018-06-23T00:19:50.454Z,76.04
2018-06-23T00:20:55.981Z,76.67
2018-06-23T00:22:00.460Z,76.57
2018-06-23T00:23:05.991Z,76.77
2018-06-23T00:24:11.498Z,76.96
2018-06-23T00:25:18.020Z,76.67
2018-06-23T00:26:23.530Z,76.39
2018-06-23T00:27:28.036Z,76.67
2018-06-23T00:28:33.544Z,76.77
2018-06-23T00:29:39.058Z,76.77
2018-06-23T00:30:45.588Z,76.77
2018-06-23T00:31:51.160Z,76.77
2018-06-23T00:32:55.611Z,76.57
2018-06-23T00:34:01.130Z,77.15
2018-06-23T00:35:06.635Z,76.96
2018-06-23T00:36:13.145Z,76.77
2018-06-23T00:37:18.658Z,76.57
2018-06-23T00:38:23.162Z,76.57
2018-06-23T00:39:28.689Z,76.77
2018-06-23T00:40:34.194Z,77.34
2018-06-23T00:41:40.722Z,77.34
2018-06-23T00:42:46.225Z,77.34
2018-06-23T00:43:50.754Z,77.44
2018-06-23T00:44:56.256Z,77.25
2018-06-23T00:46:01.784Z,77.63
2018-06-23T00:47:08.286Z,77.44
2018-06-23T00:48:13.787Z,77.63
2018-06-23T00:49:18.295Z,77.63
2018-06-23T00:50:23.796Z,77.53
2018-06-23T00:51:29.332Z,77.53
2018-06-23T00:52:35.838Z,77.34
2018-06-23T00:53:41.363Z,77.72
2018-06-23T00:54:45.858Z,77.92
2018-06-23T00:55:51.368Z,78.11
2018-06-23T00:56:56.902Z,78.11
2018-06-23T00:58:03.424Z,78.11
2018-06-23T00:59:08.931Z,77.82
2018-06-23T01:00:13.433Z,78.01
2018-06-23T01:01:18.935Z,77.82
2018-06-23T01:02:24.463Z,78.20
2018-06-23T01:03:30.978Z,77.82
2018-06-23T01:04:36.490Z,78.01
2018-06-23T01:05:41.007Z,78.20
2018-06-23T01:06:46.500Z,77.82
2018-06-23T01:07:52.016Z,78.64
2018-06-23T01:08:58.542Z,78.58
2018-06-23T01:10:04.055Z,78.68
2018-06-23T01:11:08.570Z,78.58
2018-06-23T01:12:14.074Z,78.83
2018-06-23T01:13:19.585Z,78.49
2018-06-23T01:14:26.100Z,78.68
2018-06-23T01:15:31.615Z,78.39
2018-06-23T01:16:36.118Z,78.39
2018-06-23T01:17:41.628Z,78.49
2018-06-23T01:18:47.152Z,78.58
2018-06-23T01:19:53.663Z,78.49
2018-06-23T01:20:59.183Z,78.58
2018-06-23T01:22:03.688Z,78.49
2018-06-23T01:23:09.189Z,78.30
2018-06-23T01:24:14.723Z,78.20
2018-06-23T01:25:21.236Z,78.49
2018-06-23T01:26:26.752Z,78.58
2018-06-23T01:27:31.238Z,78.20
2018-06-23T01:28:36.762Z,78.58
2018-06-23T01:29:42.282Z,78.78
2018-06-23T01:30:48.792Z,78.78
2018-06-23T01:31:54.316Z,78.55
2018-06-23T01:32:58.809Z,78.78
2018-06-23T01:34:04.320Z,78.49
2018-06-23T01:35:09.840Z,78.30
2018-06-23T01:36:16.361Z,78.58
2018-06-23T01:37:21.897Z,78.07
2018-06-23T01:38:26.382Z,78.30
2018-06-23T01:39:31.886Z,78.58
2018-06-23T01:40:37.404Z,78.68
2018-06-23T01:41:43.930Z,78.39
2018-06-23T01:42:49.433Z,77.97
2018-06-23T01:43:53.940Z,78.20
2018-06-23T01:44:59.459Z,78.20
2018-06-23T01:46:04.966Z,78.01
2018-06-23T01:47:11.499Z,77.69
2018-06-23T01:48:17.004Z,77.92
2018-06-23T01:49:21.512Z,78.26
2018-06-23T01:50:27.025Z,77.97
2018-06-23T01:51:32.531Z,77.59
2018-06-23T01:52:39.050Z,78.30
2018-06-23T01:53:44.557Z,78.20
2018-06-23T01:54:49.067Z,77.97
2018-06-23T01:55:54.584Z,77.82
2018-06-23T01:57:00.102Z,77.92
2018-06-23T01:58:06.617Z,78.11
2018-06-23T01:59:12.129Z,77.82
2018-06-23T02:00:16.661Z,77.82
2018-06-23T02:01:22.147Z,77.53
2018-06-23T02:02:27.665Z,77.63
2018-06-23T02:03:34.175Z,77.44
2018-06-23T02:04:39.691Z,77.15
2018-06-23T02:05:44.197Z,77.72
2018-06-23T02:06:49.712Z,78.11
2018-06-23T02:07:55.216Z,77.44
2018-06-23T02:09:01.741Z,77.63
2018-06-23T02:10:07.260Z,77.44
2018-06-23T02:11:11.757Z,77.44
2018-06-23T02:12:17.266Z,77.34
2018-06-23T02:13:22.858Z,77.53
2018-06-23T02:14:29.317Z,76.96
2018-06-23T02:15:34.822Z,76.57
2018-06-23T02:16:39.322Z,77.53
2018-06-23T02:17:44.845Z,77.06
2018-06-23T02:18:50.346Z,76.86
2018-06-23T02:19:56.874Z,77.53
2018-06-23T02:21:02.383Z,77.34
2018-06-23T02:22:06.893Z,76.86
2018-06-23T02:23:12.404Z,76.86
2018-06-23T02:24:17.917Z,77.44
2018-06-23T02:25:24.442Z,77.34
2018-06-23T02:26:29.952Z,77.15
2018-06-23T02:27:34.448Z,77.44
2018-06-23T02:28:40.003Z,77.34
2018-06-23T02:29:45.473Z,77.34
2018-06-23T02:30:52.004Z,77.44
2018-06-23T02:31:57.516Z,76.86
2018-06-23T02:33:02.017Z,76.67
2018-06-23T02:34:07.536Z,77.34
2018-06-23T02:35:13.063Z,77.34
2018-06-23T02:36:19.577Z,76.57
2018-06-23T02:37:25.080Z,76.57
2018-06-23T02:38:29.587Z,76.86
2018-06-23T02:39:35.133Z,76.57
2018-06-23T02:40:40.618Z,76.48
2018-06-23T02:41:47.128Z,76.67
2018-06-23T02:42:52.657Z,76.57
2018-06-23T02:43:57.163Z,76.67
2018-06-23T02:45:02.669Z,76.86
2018-06-23T02:46:08.174Z,76.48
2018-06-23T02:47:14.721Z,76.77
2018-06-23T02:48:20.210Z,76.57
2018-06-23T02:49:24.722Z,76.57
2018-06-23T02:50:30.222Z,76.86
2018-06-23T02:51:35.746Z,76.77
2018-06-23T02:52:42.258Z,76.77
2018-06-23T02:53:47.773Z,76.39
2018-06-23T02:54:52.272Z,76.86
2018-06-23T02:55:57.799Z,76.77
2018-06-23T02:57:03.301Z,76.20
2018-06-23T02:58:09.834Z,76.29
2018-06-23T02:59:15.339Z,76.29
2018-06-23T03:00:19.842Z,76.29
2018-06-23T03:01:25.350Z,75.59
2018-06-23T03:02:30.879Z,75.78
2018-06-23T03:03:37.404Z,75.78
2018-06-23T03:04:42.905Z,76.25
2018-06-23T03:05:47.403Z,76.64
2018-06-23T03:06:52.922Z,76.06
2018-06-23T03:07:58.452Z,76.06
2018-06-23T03:09:04.952Z,76.35
2018-06-23T03:10:10.552Z,76.35
2018-06-23T03:11:14.977Z,76.54
2018-06-23T03:12:20.491Z,75.96
2018-06-23T03:13:26.026Z,76.54
2018-06-23T03:14:32.515Z,76.54
2018-06-23T03:15:38.034Z,76.82
2018-06-23T03:16:42.550Z,76.25
2018-06-23T03:17:48.041Z,76.64
2018-06-23T03:18:53.565Z,76.73
2018-06-23T03:20:00.082Z,76.64
2018-06-23T03:21:05.601Z,76.35
2018-06-23T03:22:10.119Z,76.82
2018-06-23T03:23:15.611Z,76.82
2018-06-23T03:24:21.132Z,76.92
2018-06-23T03:25:27.641Z,76.82
2018-06-23T03:26:33.162Z,76.73
2018-06-23T03:27:37.662Z,76.73
2018-06-23T03:28:43.226Z,76.54
2018-06-23T03:29:48.692Z,76.73
2018-06-23T03:30:55.214Z,76.73
2018-06-23T03:32:00.718Z,76.79
2018-06-23T03:33:05.233Z,76.64
2018-06-23T03:34:10.731Z,77.21
2018-06-23T03:35:16.251Z,77.26
2018-06-23T03:36:22.779Z,77.26
2018-06-23T03:37:28.280Z,77.30
2018-06-23T03:38:32.790Z,77.30
2018-06-23T03:39:38.298Z,77.26
2018-06-23T03:40:43.829Z,77.59
2018-06-23T03:41:50.333Z,77.50
2018-06-23T03:42:55.856Z,77.45
2018-06-23T03:44:00.375Z,77.50
2018-06-23T03:45:05.868Z,77.45
2018-06-23T03:46:11.368Z,77.87
2018-06-23T03:47:17.919Z,77.87
2018-06-23T03:48:23.422Z,78.03
2018-06-23T03:49:27.916Z,77.74
2018-06-23T03:50:33.435Z,77.78
2018-06-23T03:51:38.934Z,78.07
2018-06-23T03:52:45.467Z,77.59
2018-06-23T03:53:50.971Z,77.87
2018-06-23T03:54:55.490Z,78.07
2018-06-23T03:56:01.023Z,77.94
2018-06-23T03:57:06.513Z,78.13
2018-06-23T03:58:13.027Z,78.31
2018-06-23T03:59:18.535Z,78.36
2018-06-23T04:00:23.044Z,78.36
2018-06-23T04:01:28.606Z,78.36
2018-06-23T04:02:34.065Z,78.31
2018-06-23T04:03:40.594Z,78.31
2018-06-23T04:04:46.105Z,78.26
2018-06-23T04:05:50.610Z,78.36
2018-06-23T04:06:56.109Z,78.36
2018-06-23T04:08:01.628Z,78.36
2018-06-23T04:09:08.148Z,78.55
2018-06-23T04:10:13.663Z,78.55
2018-06-23T04:11:18.173Z,78.55
2018-06-23T04:12:23.723Z,78.74
2018-06-23T04:13:29.195Z,78.83
2018-06-23T04:14:35.707Z,79.02
2018-06-23T04:15:41.230Z,79.31
2018-06-23T04:16:45.770Z,79.02
2018-06-23T04:17:51.239Z,79.22
2018-06-23T04:18:56.753Z,79.02
2018-06-23T04:20:03.316Z,78.93
2018-06-23T04:21:08.791Z,79.31
2018-06-23T04:22:13.292Z,79.69
2018-06-23T04:23:18.802Z,79.22
2018-06-23T04:24:24.341Z,79.50
2018-06-23T04:25:30.847Z,79.31
2018-06-23T04:26:36.431Z,78.83
2018-06-23T04:27:40.868Z,78.93
2018-06-23T04:28:46.374Z,78.16
2018-06-23T04:29:51.885Z,78.83
2018-06-23T04:30:58.403Z,79.02
2018-06-23T04:32:03.931Z,78.83
2018-06-23T04:33:08.421Z,79.41
2018-06-23T04:34:13.931Z,78.93
2018-06-23T04:35:19.450Z,79.22
2018-06-23T04:36:25.967Z,79.22
2018-06-23T04:37:31.490Z,79.02
2018-06-23T04:38:35.996Z,78.20
2018-06-23T04:39:41.488Z,78.45
2018-06-23T04:40:47.011Z,78.64
2018-06-23T04:41:53.536Z,78.45
2018-06-23T04:42:59.049Z,79.25
2018-06-23T04:44:03.556Z,79.35
2018-06-23T04:45:09.062Z,78.93
2018-06-23T04:46:14.606Z,78.20
2018-06-23T04:47:21.103Z,78.20
2018-06-23T04:48:26.620Z,78.68
2018-06-23T04:49:31.115Z,78.36
2018-06-23T04:50:36.626Z,78.39
2018-06-23T04:51:42.138Z,78.49
2018-06-23T04:52:48.658Z,78.20
2018-06-23T04:53:54.164Z,78.97
2018-06-23T04:54:58.668Z,79.06
2018-06-23T04:56:04.196Z,78.97
2018-06-23T04:57:09.769Z,78.20
2018-06-23T04:58:16.230Z,78.30
2018-06-23T04:59:21.736Z,77.72
2018-06-23T05:00:26.318Z,78.39
2018-06-23T05:01:31.760Z,78.30
2018-06-23T05:02:37.276Z,79.06
2018-06-23T05:03:43.790Z,79.25
2018-06-23T05:04:49.307Z,78.97
2018-06-23T05:05:53.806Z,78.49
2018-06-23T05:06:59.318Z,78.58
2018-06-23T05:08:04.834Z,78.39
2018-06-23T05:09:11.369Z,78.20
2018-06-23T05:10:16.860Z,78.49
2018-06-23T05:11:21.429Z,78.01
2018-06-23T05:12:26.885Z,78.20
2018-06-23T05:13:32.404Z,77.72
2018-06-23T05:14:38.921Z,78.01
2018-06-23T05:15:44.438Z,78.78
2018-06-23T05:16:48.932Z,78.58
2018-06-23T05:17:54.477Z,78.30
2018-06-23T05:18:59.961Z,78.30
2018-06-23T05:20:06.489Z,78.68
2018-06-23T05:21:11.996Z,78.20
2018-06-23T05:22:16.495Z,78.01
2018-06-23T05:23:22.013Z,78.20
2018-06-23T05:24:27.537Z,77.92
2018-06-23T05:25:34.063Z,78.30
2018-06-23T05:26:39.557Z,78.39
2018-06-23T05:27:44.069Z,78.01
2018-06-23T05:28:49.581Z,78.14
2018-06-23T05:29:55.103Z,77.63
2018-06-23T05:31:01.621Z,77.63
2018-06-23T05:32:08.112Z,77.67
2018-06-23T05:33:11.637Z,77.92
2018-06-23T05:34:17.146Z,77.76
2018-06-23T05:35:22.657Z,77.57
2018-06-23T05:36:29.284Z,77.67
2018-06-23T05:37:34.688Z,77.86
2018-06-23T05:38:39.197Z,77.76
2018-06-23T05:39:44.709Z,77.67
2018-06-23T05:40:50.224Z,77.48
2018-06-23T05:41:56.761Z,77.86
2018-06-23T05:43:02.268Z,77.57
2018-06-23T05:44:06.772Z,77.44
2018-06-23T05:45:12.292Z,77.53
2018-06-23T05:46:17.791Z,78.39
2018-06-23T05:47:24.314Z,77.86
2018-06-23T05:48:29.835Z,78.43
2018-06-23T05:49:34.343Z,78.43
2018-06-23T05:50:39.855Z,78.43
2018-06-23T05:51:45.355Z,78.24
2018-06-23T05:52:51.889Z,77.86
2018-06-23T05:53:57.398Z,77.76
2018-06-23T05:55:01.890Z,78.14
2018-06-23T05:56:07.419Z,78.43
2018-06-23T05:57:12.930Z,78.53
2018-06-23T05:58:19.450Z,78.24
2018-06-23T05:59:24.959Z,78.63
2018-06-23T06:00:29.468Z,78.14
2018-06-23T06:01:34.971Z,78.05
2018-06-23T06:02:40.491Z,77.76
2018-06-23T06:03:47.012Z,77.86
2018-06-23T06:04:52.534Z,77.67
2018-06-23T06:05:57.038Z,78.72
2018-06-23T06:07:02.549Z,78.72
2018-06-23T06:08:08.051Z,77.76
2018-06-23T06:09:14.574Z,78.43
2018-06-23T06:10:20.091Z,77.95
2018-06-23T06:11:24.604Z,77.57
2018-06-23T06:12:30.104Z,77.86
2018-06-23T06:13:35.628Z,77.67
2018-06-23T06:14:42.150Z,78.14
2018-06-23T06:15:47.662Z,77.86
2018-06-23T06:16:52.162Z,78.05
2018-06-23T06:17:57.669Z,77.86
2018-06-23T06:19:03.194Z,77.82
2018-06-23T06:20:10.619Z,77.82
2018-06-23T06:21:15.228Z,78.72
2018-06-23T06:22:19.719Z,78.87
2018-06-23T06:23:25.248Z,79.58
2018-06-23T06:24:30.756Z,79.93
2018-06-23T06:25:37.272Z,79.68
2018-06-23T06:26:42.793Z,80.44
2018-06-23T06:27:47.304Z,80.25
2018-06-23T06:28:52.814Z,81.02
2018-06-23T06:29:58.313Z,80.92
2018-06-23T06:31:04.853Z,81.59
2018-06-23T06:32:10.373Z,81.40
2018-06-23T06:33:14.873Z,81.40
2018-06-23T06:34:20.373Z,81.59
2018-06-23T06:35:25.887Z,81.93
2018-06-23T06:36:32.436Z,81.93
2018-06-23T06:37:37.925Z,81.78
2018-06-23T06:38:42.435Z,81.65
2018-06-23T06:39:47.942Z,81.65
2018-06-23T06:40:53.454Z,82.31
2018-06-23T06:42:00.011Z,82.31
2018-06-23T06:43:05.496Z,82.31
2018-06-23T06:44:09.998Z,82.51
2018-06-23T06:45:15.508Z,82.51
2018-06-23T06:46:21.031Z,82.41
2018-06-23T06:47:27.553Z,82.54
2018-06-23T06:48:33.051Z,83.17
2018-06-23T06:49:37.556Z,82.60
2018-06-23T06:50:43.112Z,82.22
2018-06-23T06:51:48.572Z,83.12
2018-06-23T06:52:55.106Z,82.98
2018-06-23T06:54:00.618Z,82.31
2018-06-23T06:55:05.136Z,82.79
2018-06-23T06:56:10.646Z,83.03
2018-06-23T06:57:16.210Z,82.74
2018-06-23T06:58:22.682Z,82.83
2018-06-23T06:59:28.178Z,82.83
2018-06-23T07:00:32.683Z,82.64
2018-06-23T07:01:38.205Z,82.93
2018-06-23T07:02:43.728Z,82.74
2018-06-23T07:03:50.239Z,82.54
2018-06-23T07:04:55.751Z,82.64
2018-06-23T07:06:00.252Z,82.64
2018-06-23T07:07:05.778Z,81.88
2018-06-23T07:08:11.280Z,81.82
2018-06-23T07:09:17.800Z,82.54
2018-06-23T07:10:23.317Z,82.59
2018-06-23T07:11:27.817Z,82.40
2018-06-23T07:12:33.368Z,82.30
2018-06-23T07:13:38.849Z,81.73
2018-06-23T07:14:45.376Z,81.25
2018-06-23T07:15:50.880Z,81.82
2018-06-23T07:16:55.383Z,81.73
2018-06-23T07:18:00.962Z,81.44
2018-06-23T07:19:06.422Z,80.67
2018-06-23T07:20:12.962Z,79.91
2018-06-23T07:21:18.454Z,79.81
2018-06-23T07:22:22.964Z,80.90
2018-06-23T07:23:28.539Z,80.62
2018-06-23T07:24:33.980Z,80.43
2018-06-23T07:25:40.503Z,80.43
2018-06-23T07:26:46.089Z,78.38
2018-06-23T07:27:50.527Z,79.37
2018-06-23T07:28:56.025Z,79.95
2018-06-23T07:30:01.562Z,79.57
2018-06-23T07:31:08.090Z,79.28
2018-06-23T07:32:13.616Z,78.99
2018-06-23T07:33:18.093Z,78.80
2018-06-23T07:34:23.617Z,78.17
2018-06-23T07:35:29.131Z,78.17
2018-06-23T07:36:35.646Z,76.82
2018-06-23T07:37:41.189Z,77.40
2018-06-23T07:38:45.656Z,76.82
2018-06-23T07:39:51.173Z,76.73
2018-06-23T07:40:56.693Z,77.69
2018-06-23T07:42:03.218Z,77.50
2018-06-23T07:43:08.866Z,75.77
2018-06-23T07:44:13.249Z,75.77
2018-06-23T07:45:18.760Z,75.87
2018-06-23T07:46:24.267Z,76.25
2018-06-23T07:47:30.778Z,75.58
2018-06-23T07:48:36.295Z,74.72
2018-06-23T07:49:40.807Z,74.82
2018-06-23T07:50:46.320Z,75.20
2018-06-23T07:51:51.827Z,75.39
2018-06-23T07:52:58.350Z,75.48
2018-06-23T07:54:03.861Z,75.20
2018-06-23T07:55:08.367Z,74.91
2018-06-23T07:56:13.894Z,74.95
2018-06-23T07:57:19.398Z,75.29
2018-06-23T07:58:25.930Z,75.29
2018-06-23T07:59:31.440Z,75.81
2018-06-23T08:00:35.945Z,75.81
2018-06-23T08:01:41.500Z,74.76
2018-06-23T08:02:47.074Z,73.51
2018-06-23T08:03:53.494Z,74.18
2018-06-23T08:04:59.011Z,74.37
2018-06-23T08:06:03.518Z,74.85
2018-06-23T08:07:09.026Z,74.37
2018-06-23T08:08:14.547Z,74.66
2018-06-23T08:09:21.061Z,73.61
2018-06-23T08:10:26.586Z,74.57
2018-06-23T08:11:31.109Z,73.90
2018-06-23T08:12:36.606Z,73.90
2018-06-23T08:13:42.132Z,74.08
2018-06-23T08:14:48.636Z,73.61
2018-06-23T08:15:54.155Z,74.05
2018-06-23T08:16:58.661Z,73.32
2018-06-23T08:18:04.170Z,72.07
2018-06-23T08:19:09.692Z,71.59
2018-06-23T08:20:16.201Z,71.21
2018-06-23T08:21:21.732Z,69.87
2018-06-23T08:22:26.220Z,71.88
2018-06-23T08:23:31.738Z,70.73
2018-06-23T08:24:37.250Z,71.11
2018-06-23T08:25:43.780Z,71.40
2018-06-23T08:26:49.305Z,71.40
2018-06-23T08:27:53.793Z,71.69
2018-06-23T08:28:59.316Z,71.34
2018-06-23T08:30:04.838Z,70.29
2018-06-23T08:31:11.359Z,70.38
2018-06-23T08:32:16.860Z,70.57
2018-06-23T08:33:21.365Z,69.90
2018-06-23T08:34:26.961Z,67.89
2018-06-23T08:35:32.406Z,67.69
2018-06-23T08:36:38.934Z,68.85
2018-06-23T08:37:44.469Z,68.66
2018-06-23T08:38:48.957Z,68.46
2018-06-23T08:39:54.460Z,69.04
2018-06-23T08:40:59.977Z,68.18
2018-06-23T08:42:06.503Z,69.23
2018-06-23T08:43:12.009Z,69.29
2018-06-23T08:44:16.523Z,69.62
2018-06-23T08:45:22.024Z,70.38
2018-06-23T08:46:27.545Z,70.76
2018-06-23T08:47:34.086Z,70.19
2018-06-23T08:48:39.575Z,70.29
2018-06-23T08:49:44.098Z,70.19
2018-06-23T08:50:49.600Z,70.09
2018-06-23T08:51:55.126Z,70.76
2018-06-23T08:53:01.635Z,72.01
2018-06-23T08:54:07.156Z,72.11
2018-06-23T08:55:11.683Z,71.53
2018-06-23T08:56:17.192Z,71.92
2018-06-23T08:57:22.684Z,71.15
2018-06-23T08:58:29.240Z,70.57
2018-06-23T08:59:34.745Z,70.38
2018-06-23T09:00:39.224Z,70.57
2018-06-23T09:01:44.814Z,69.84
2018-06-23T09:02:50.352Z,70.42
2018-06-23T09:03:56.778Z,69.93
2018-06-23T09:05:02.311Z,69.26
2018-06-23T09:06:06.815Z,69.20
2018-06-23T09:07:12.339Z,69.68
2018-06-23T09:08:17.840Z,69.30
2018-06-23T09:09:24.386Z,69.30
2018-06-23T09:10:29.905Z,68.24
2018-06-23T09:11:34.391Z,65.72
2018-06-23T09:12:39.883Z,64.22
2018-06-23T09:13:45.423Z,65.33
2018-06-23T09:14:51.934Z,66.19
2018-06-23T09:15:57.479Z,66.67
2018-06-23T09:17:01.960Z,65.81
2018-06-23T09:18:07.480Z,65.14
2018-06-23T09:19:12.987Z,64.95
2018-06-23T09:20:19.516Z,63.42
2018-06-23T09:21:25.038Z,62.55
2018-06-23T09:22:29.527Z,63.12
2018-06-23T09:23:35.027Z,62.45
2018-06-23T09:24:40.559Z,62.96
2018-06-23T09:25:47.153Z,62.87
2018-06-23T09:26:52.609Z,61.62
2018-06-23T09:27:57.116Z,60.38
2018-06-23T09:29:02.623Z,60.66
2018-06-23T09:30:08.134Z,61.75
2018-06-23T09:31:14.674Z,60.78
2018-06-23T09:32:20.187Z,61.08
2018-06-23T09:33:24.680Z,61.65
2018-06-23T09:34:30.237Z,61.17
2018-06-23T09:35:35.725Z,61.55
2018-06-23T09:36:42.245Z,61.84
2018-06-23T09:37:47.753Z,62.61
2018-06-23T09:38:52.266Z,63.38
2018-06-23T09:39:57.781Z,63.48
2018-06-23T09:41:03.295Z,63.86
2018-06-23T09:42:09.827Z,64.34
2018-06-23T09:43:15.393Z,62.99
2018-06-23T09:44:19.841Z,62.90
2018-06-23T09:45:25.345Z,62.13
2018-06-23T09:46:30.883Z,62.52
2018-06-23T09:47:37.429Z,62.32
2018-06-23T09:48:42.908Z,62.13
2018-06-23T09:49:47.458Z,62.42
2018-06-23T09:50:52.930Z,61.17
2018-06-23T09:51:58.441Z,58.96
2018-06-23T09:53:04.969Z,59.44
2018-06-23T09:54:10.487Z,58.67
2018-06-23T09:55:14.992Z,58.13
2018-06-23T09:56:20.501Z,58.80
2018-06-23T09:57:26.039Z,58.89
2018-06-23T09:58:32.550Z,58.13
2018-06-23T09:59:38.082Z,58.89
2018-06-23T10:00:42.569Z,58.99
2018-06-23T10:01:48.083Z,58.80
2018-06-23T10:02:53.601Z,58.89
2018-06-23T10:04:00.118Z,58.70
2018-06-23T10:05:05.645Z,58.61
2018-06-23T10:06:10.162Z,57.17
2018-06-23T10:07:15.736Z,56.59
2018-06-23T10:08:21.260Z,55.53
2018-06-23T10:09:27.719Z,55.63
2018-06-23T10:10:33.218Z,55.85
2018-06-23T10:11:37.725Z,56.62
2018-06-23T10:12:43.249Z,56.04
2018-06-23T10:13:48.757Z,56.43
2018-06-23T10:14:55.349Z,55.18
2018-06-23T10:16:00.809Z,55.66
2018-06-23T10:17:05.321Z,55.76
2018-06-23T10:18:10.820Z,56.21
2018-06-23T10:19:16.340Z,55.73
2018-06-23T10:20:22.863Z,57.07
2018-06-23T10:21:28.384Z,57.65
2018-06-23T10:22:32.887Z,57.26
2018-06-23T10:23:38.405Z,58.03
2018-06-23T10:24:43.921Z,58.03
2018-06-23T10:25:50.434Z,58.70
2018-06-23T10:26:55.951Z,58.80
2018-06-23T10:28:00.460Z,59.28
2018-06-23T10:29:05.968Z,59.47
2018-06-23T10:30:11.503Z,59.47
2018-06-23T10:31:18.019Z,60.34
2018-06-23T10:32:23.537Z,59.89
2018-06-23T10:33:28.032Z,58.92
2018-06-23T10:34:33.640Z,60.17
2018-06-23T10:35:39.077Z,60.17
2018-06-23T10:36:45.616Z,60.27
2018-06-23T10:37:51.123Z,60.75
2018-06-23T10:38:55.621Z,61.14
2018-06-23T10:40:01.202Z,61.04
2018-06-23T10:41:06.673Z,61.14
2018-06-23T10:42:13.181Z,60.37
2018-06-23T10:43:18.696Z,60.27
2018-06-23T10:44:23.203Z,61.23
2018-06-23T10:45:28.862Z,60.46
2018-06-23T10:46:34.225Z,60.46
2018-06-23T10:47:40.769Z,60.37
2018-06-23T10:48:46.270Z,61.74
2018-06-23T10:49:50.770Z,61.74
2018-06-23T10:50:56.321Z,61.16
2018-06-23T10:52:01.809Z,59.82
2018-06-23T10:53:08.342Z,59.92
2018-06-23T10:54:13.874Z,60.30
2018-06-23T10:55:18.352Z,60.97
2018-06-23T10:56:23.875Z,60.78
2018-06-23T10:57:29.394Z,59.85
2018-06-23T10:58:35.911Z,59.44
2018-06-23T10:59:41.450Z,59.34
2018-06-23T11:00:45.930Z,59.34
2018-06-23T11:01:51.466Z,59.82
2018-06-23T11:02:56.997Z,60.21
2018-06-23T11:04:03.494Z,60.59
2018-06-23T11:05:09.019Z,61.36
2018-06-23T11:06:13.533Z,61.26
2018-06-23T11:07:19.041Z,62.41
2018-06-23T11:08:24.563Z,61.65
2018-06-23T11:09:31.072Z,62.80
2018-06-23T11:10:36.616Z,62.41
2018-06-23T11:11:41.123Z,62.32
2018-06-23T11:12:46.625Z,62.71
2018-06-23T11:13:52.137Z,62.23
2018-06-23T11:14:58.654Z,62.80
2018-06-23T11:16:04.185Z,61.16
2018-06-23T11:17:08.743Z,61.07
2018-06-23T11:18:14.214Z,59.44
2018-06-23T11:19:19.728Z,60.39
2018-06-23T11:20:26.244Z,60.30
2018-06-23T11:21:31.776Z,59.99
2018-06-23T11:22:36.283Z,60.37
2018-06-23T11:23:41.796Z,60.46
2018-06-23T11:24:47.297Z,61.14
2018-06-23T11:25:53.835Z,61.52
2018-06-23T11:26:59.347Z,61.81
2018-06-23T11:28:03.851Z,61.71
2018-06-23T11:29:09.366Z,62.19
2018-06-23T11:30:14.879Z,62.68
2018-06-23T11:31:21.399Z,62.87
2018-06-23T11:32:26.933Z,63.25
2018-06-23T11:33:31.428Z,63.15
2018-06-23T11:34:36.949Z,63.35
2018-06-23T11:35:42.468Z,62.96
2018-06-23T11:36:49.022Z,62.58
2018-06-23T11:37:54.510Z,62.80
2018-06-23T11:38:59.017Z,62.51
2018-06-23T11:40:04.511Z,62.71
2018-06-23T11:41:10.053Z,62.61
2018-06-23T11:42:16.576Z,62.71
2018-06-23T11:43:22.093Z,62.41
2018-06-23T11:44:26.602Z,62.41
2018-06-23T11:45:32.121Z,62.51
2018-06-23T11:46:37.642Z,62.23
2018-06-23T11:47:44.147Z,61.55
2018-06-23T11:48:49.663Z,62.54
2018-06-23T11:49:54.185Z,61.74
2018-06-23T11:50:59.685Z,61.19
2018-06-23T11:52:05.254Z,60.97
2018-06-23T11:53:11.761Z,61.36
2018-06-23T11:54:17.248Z,60.01
2018-06-23T11:55:21.763Z,61.07
2018-06-23T11:56:27.256Z,61.84
2018-06-23T11:57:32.782Z,62.51
2018-06-23T11:58:39.334Z,62.61
2018-06-23T11:59:44.835Z,63.18
2018-06-23T12:00:49.339Z,62.90
2018-06-23T12:01:54.887Z,63.18
2018-06-23T12:03:00.373Z,62.99
2018-06-23T12:04:06.906Z,63.67
2018-06-23T12:05:12.419Z,63.09
2018-06-23T12:06:16.921Z,62.54
2018-06-23T12:07:22.422Z,62.93
2018-06-23T12:08:27.977Z,62.64
2018-06-23T12:09:35.839Z,61.77
2018-06-23T12:10:39.995Z,62.93
2018-06-23T12:11:44.494Z,62.67
2018-06-23T12:12:50.020Z,62.64
2018-06-23T12:13:55.576Z,61.68
2018-06-23T12:15:02.050Z,60.52
2018-06-23T12:16:07.579Z,60.33
2018-06-23T12:17:12.079Z,60.21
2018-06-23T12:18:17.598Z,61.00
2018-06-23T12:19:23.174Z,60.01
2018-06-23T12:20:29.647Z,60.21
2018-06-23T12:21:35.184Z,59.92
2018-06-23T12:22:39.732Z,59.44
2018-06-23T12:23:45.173Z,60.04
2018-06-23T12:24:50.715Z,58.89
2018-06-23T12:25:57.247Z,59.17
2018-06-23T12:27:02.752Z,58.60
2018-06-23T12:28:07.804Z,58.22
2018-06-23T12:29:12.780Z,58.70
2018-06-23T12:30:18.303Z,58.98
2018-06-23T12:31:24.802Z,59.17
2018-06-23T12:32:30.348Z,59.37
2018-06-23T12:33:34.838Z,59.94
2018-06-23T12:34:40.350Z,60.33
2018-06-23T12:35:45.898Z,60.33
2018-06-23T12:36:52.385Z,60.14
2018-06-23T12:37:57.906Z,58.86
2018-06-23T12:39:02.422Z,59.05
2018-06-23T12:40:07.922Z,59.53
2018-06-23T12:41:13.448Z,59.82
2018-06-23T12:42:19.986Z,60.30
2018-06-23T12:43:25.521Z,59.89
2018-06-23T12:44:30.010Z,59.89
2018-06-23T12:45:35.520Z,60.37
2018-06-23T12:46:41.028Z,60.75
2018-06-23T12:47:47.562Z,60.27
2018-06-23T12:48:53.077Z,60.66
2018-06-23T12:49:57.577Z,60.46
2018-06-23T12:51:03.109Z,60.56
2018-06-23T12:52:08.620Z,60.30
2018-06-23T12:53:15.146Z,59.53
2018-06-23T12:54:20.657Z,60.69
2018-06-23T12:55:25.160Z,60.42
2018-06-23T12:56:30.765Z,60.33
2018-06-23T12:57:36.187Z,60.14
2018-06-23T12:58:42.723Z,58.70
2018-06-23T12:59:48.239Z,58.18
2018-06-23T13:00:52.734Z,57.80
2018-06-23T13:01:58.258Z,58.57
2018-06-23T13:03:03.769Z,58.95
2018-06-23T13:04:10.821Z,58.98
2018-06-23T13:05:15.833Z,58.76
2018-06-23T13:06:20.314Z,57.22
2018-06-23T13:07:25.843Z,57.83
2018-06-23T13:08:31.379Z,57.22
2018-06-23T13:09:37.883Z,58.28
2018-06-23T13:10:44.323Z,58.18
2018-06-23T13:11:47.915Z,58.18
2018-06-23T13:12:53.414Z,58.95
2018-06-23T13:13:58.935Z,58.64
2018-06-23T13:15:05.478Z,59.31
2018-06-23T13:16:10.988Z,60.08
2018-06-23T13:17:15.507Z,61.23
2018-06-23T13:18:21.013Z,61.04
2018-06-23T13:19:26.529Z,61.61
2018-06-23T13:20:33.049Z,61.52
2018-06-23T13:21:38.559Z,62.00
2018-06-23T13:22:43.065Z,62.48
2018-06-23T13:23:48.575Z,62.96
2018-06-23T13:24:54.131Z,62.87
2018-06-23T13:26:01.310Z,62.80
2018-06-23T13:27:06.103Z,63.18
2018-06-23T13:28:10.678Z,62.80
2018-06-23T13:29:16.181Z,61.55
2018-06-23T13:30:22.346Z,60.97
2018-06-23T13:31:28.212Z,59.92
2018-06-23T13:32:33.715Z,60.01
2018-06-23T13:33:38.238Z,60.97
2018-06-23T13:34:43.740Z,61.07
2018-06-23T13:35:49.255Z,61.07
2018-06-23T13:36:55.793Z,61.74
2018-06-23T13:38:02.300Z,61.65
2018-06-23T13:39:05.836Z,60.01
2018-06-23T13:40:11.390Z,60.39
2018-06-23T13:41:16.840Z,61.07
2018-06-23T13:42:23.369Z,60.01
2018-06-23T13:43:28.879Z,60.21
2018-06-23T13:44:33.392Z,60.52
2018-06-23T13:45:39.357Z,60.81
2018-06-23T13:46:44.438Z,62.48
2018-06-23T13:47:50.966Z,61.61
2018-06-23T13:48:56.489Z,59.69
2018-06-23T13:50:00.963Z,58.82
2018-06-23T13:51:06.494Z,58.05
2018-06-23T13:52:12.022Z,58.15
2018-06-23T13:53:18.530Z,57.95
2018-06-23T13:54:24.064Z,57.37
2018-06-23T13:55:29.346Z,57.86
2018-06-23T13:56:34.080Z,58.44
2018-06-23T13:57:39.580Z,57.28
2018-06-23T13:58:46.120Z,57.57
2018-06-23T13:59:52.356Z,58.05
2018-06-23T14:00:56.135Z,57.09
2018-06-23T14:02:01.677Z,57.47
2018-06-23T14:03:07.187Z,57.18